createdAt,value
2022-09-17T00:00:52.131Z,5.73
2022-09-17T00:01:52.192Z,5.55
2022-09-17T00:02:52.239Z,5.55
2022-09-17T00:03:52.115Z,5.73
2022-09-17T00:04:52.109Z,5.51
2022-09-17T00:05:52.078Z,5.62
2022-09-17T00:06:52.064Z,5.55
2022-09-17T00:07:52.056Z,5.73
2022-09-17T00:08:52.055Z,5.67
2022-09-17T00:09:52.033Z,5.56
2022-09-17T00:10:52.117Z,5.66
2022-09-17T00:11:52.005Z,5.65
2022-09-17T00:12:52.120Z,5.70
2022-09-17T00:13:52.194Z,5.70
2022-09-17T00:14:51.978Z,5.75
2022-09-17T00:15:52.102Z,5.70
2022-09-17T00:16:52.206Z,5.67
2022-09-17T00:17:51.947Z,5.77
2022-09-17T00:18:51.930Z,5.67
2022-09-17T00:19:51.921Z,5.70
2022-09-17T00:20:51.912Z,5.62
2022-09-17T00:21:51.902Z,5.55
2022-09-17T00:22:51.903Z,5.66
2022-09-17T00:23:51.911Z,5.59
2022-09-17T00:24:51.868Z,5.60
2022-09-17T00:25:51.857Z,5.63
2022-09-17T00:26:51.861Z,5.55
2022-09-17T00:27:51.839Z,5.55
2022-09-17T00:28:51.962Z,5.59
2022-09-17T00:29:51.872Z,5.44
2022-09-17T00:30:51.868Z,5.49
2022-09-17T00:31:51.811Z,5.67
2022-09-17T00:32:51.790Z,5.51
2022-09-17T00:33:51.770Z,5.58
2022-09-17T00:34:51.759Z,5.55
2022-09-17T00:35:51.810Z,5.62
2022-09-17T00:36:51.740Z,5.45
2022-09-17T00:37:51.735Z,5.51
2022-09-17T00:38:51.713Z,5.42
2022-09-17T00:39:51.771Z,5.55
2022-09-17T00:40:51.695Z,5.45
2022-09-17T00:41:51.719Z,5.47
2022-09-17T00:42:51.675Z,5.56
2022-09-17T00:43:51.692Z,5.48
2022-09-17T00:44:51.770Z,5.49
2022-09-17T00:45:51.641Z,5.44
2022-09-17T00:46:51.679Z,5.62
2022-09-17T00:47:51.685Z,5.63
2022-09-17T00:48:51.607Z,5.75
2022-09-17T00:49:51.610Z,5.56
2022-09-17T00:50:51.593Z,5.52
2022-09-17T00:51:51.575Z,5.58
2022-09-17T00:52:51.568Z,5.49
2022-09-17T00:53:51.621Z,5.59
2022-09-17T00:54:51.539Z,5.60
2022-09-17T00:55:51.543Z,5.65
2022-09-17T00:56:51.516Z,5.65
2022-09-17T00:57:51.510Z,5.65
2022-09-17T00:58:51.503Z,5.55
2022-09-17T00:59:51.544Z,5.59
2022-09-17T01:00:51.664Z,5.62
2022-09-17T01:01:51.666Z,5.49
2022-09-17T01:02:51.453Z,5.58
2022-09-17T01:03:51.444Z,5.63
2022-09-17T01:04:51.437Z,5.58
2022-09-17T01:05:51.553Z,5.69
2022-09-17T01:06:51.415Z,5.62
2022-09-17T01:07:51.401Z,5.45
2022-09-17T01:08:51.391Z,5.56
2022-09-17T01:09:51.379Z,5.56
2022-09-17T01:10:51.378Z,5.49
2022-09-17T01:11:51.425Z,5.65
2022-09-17T01:12:51.348Z,5.66
2022-09-17T01:13:51.334Z,5.58
2022-09-17T01:14:51.321Z,5.60
2022-09-17T01:15:51.363Z,5.58
2022-09-17T01:16:51.434Z,5.74
2022-09-17T01:17:51.353Z,5.59
2022-09-17T01:18:51.280Z,5.59
2022-09-17T01:19:51.280Z,5.74
2022-09-17T01:20:51.259Z,5.55
2022-09-17T01:21:51.244Z,5.49
2022-09-17T01:22:51.234Z,5.73
2022-09-17T01:23:51.277Z,5.66
2022-09-17T01:24:51.214Z,5.52
2022-09-17T01:25:51.214Z,5.47
2022-09-17T01:26:51.192Z,5.55
2022-09-17T01:27:51.183Z,5.56
2022-09-17T01:28:51.168Z,5.56
2022-09-17T01:29:51.224Z,5.51
2022-09-17T01:30:51.156Z,5.60
2022-09-17T01:31:51.241Z,5.65
2022-09-17T01:32:51.257Z,5.65
2022-09-17T01:33:51.117Z,5.45
2022-09-17T01:34:51.118Z,5.59
2022-09-17T01:35:51.221Z,5.45
2022-09-17T01:36:51.089Z,5.60
2022-09-17T01:37:51.085Z,5.52
2022-09-17T01:38:51.059Z,5.48
2022-09-17T01:39:51.149Z,5.45
2022-09-17T01:40:51.047Z,5.52
2022-09-17T01:41:51.041Z,5.45
2022-09-17T01:42:51.035Z,5.45
2022-09-17T01:43:51.004Z,5.52
2022-09-17T01:44:51.005Z,5.47
2022-09-17T01:45:50.987Z,5.42
2022-09-17T01:46:51.036Z,5.51
2022-09-17T01:47:51.030Z,5.45
2022-09-17T01:48:51.077Z,5.20
2022-09-17T01:49:50.939Z,5.33
2022-09-17T01:50:51.031Z,5.26
2022-09-17T01:51:50.927Z,5.27
2022-09-17T01:52:50.930Z,5.27
2022-09-17T01:53:50.898Z,5.20
2022-09-17T01:54:50.889Z,5.15
2022-09-17T01:55:50.878Z,5.17
2022-09-17T01:56:50.869Z,5.19
2022-09-17T01:57:50.860Z,5.04
2022-09-17T01:58:50.858Z,5.14
2022-09-17T01:59:50.917Z,4.97
2022-09-17T02:00:50.884Z,5.09
2022-09-17T02:01:50.866Z,5.14
2022-09-17T02:02:50.860Z,5.24
2022-09-17T02:03:50.787Z,5.23
2022-09-17T02:04:50.930Z,5.27
2022-09-17T02:05:50.982Z,5.26
2022-09-17T02:06:50.757Z,5.32
2022-09-17T02:07:50.825Z,5.30
2022-09-17T02:08:50.733Z,5.29
2022-09-17T02:09:50.738Z,5.22
2022-09-17T02:10:50.713Z,5.37
2022-09-17T02:11:50.715Z,5.24
2022-09-17T02:12:50.703Z,5.38
2022-09-17T02:13:50.746Z,5.32
2022-09-17T02:14:50.691Z,5.30
2022-09-17T02:15:50.690Z,5.35
2022-09-17T02:16:50.652Z,5.30
2022-09-17T02:17:50.635Z,5.26
2022-09-17T02:18:50.626Z,5.32
2022-09-17T02:19:50.683Z,5.30
2022-09-17T02:20:50.738Z,5.35
2022-09-17T02:21:50.606Z,5.30
2022-09-17T02:22:50.578Z,5.38
2022-09-17T02:23:50.572Z,5.26
2022-09-17T02:24:50.556Z,5.27
2022-09-17T02:25:50.621Z,5.26
2022-09-17T02:26:50.553Z,5.22
2022-09-17T02:27:50.547Z,5.17
2022-09-17T02:28:50.514Z,5.24
2022-09-17T02:29:50.507Z,5.22
2022-09-17T02:30:50.494Z,5.06
2022-09-17T02:31:50.568Z,5.09
2022-09-17T02:32:50.476Z,5.06
2022-09-17T02:33:50.479Z,4.96
2022-09-17T02:34:50.454Z,4.91
2022-09-17T02:35:50.479Z,5.01
2022-09-17T02:36:50.560Z,5.02
2022-09-17T02:37:50.434Z,4.94
2022-09-17T02:38:50.470Z,5.01
2022-09-17T02:39:50.510Z,5.05
2022-09-17T02:40:50.387Z,5.09
2022-09-17T02:41:50.372Z,5.08
2022-09-17T02:42:50.365Z,5.05
2022-09-17T02:43:50.539Z,4.96
2022-09-17T02:44:50.338Z,5.05
2022-09-17T02:45:50.397Z,5.01
2022-09-17T02:46:50.451Z,4.88
2022-09-17T02:47:50.312Z,4.88
2022-09-17T02:48:50.314Z,4.80
2022-09-17T02:49:50.296Z,4.74
2022-09-17T02:50:50.283Z,4.68
2022-09-17T02:51:50.321Z,4.75
2022-09-17T02:52:50.376Z,4.64
2022-09-17T02:53:50.258Z,4.68
2022-09-17T02:54:50.248Z,4.56
2022-09-17T02:55:50.222Z,4.61
2022-09-17T02:56:50.212Z,4.57
2022-09-17T02:57:50.292Z,4.71
2022-09-17T02:58:50.189Z,4.69
2022-09-17T02:59:50.189Z,4.71
2022-09-17T03:00:50.273Z,4.83
2022-09-17T03:01:50.246Z,4.75
2022-09-17T03:02:50.144Z,4.56
2022-09-17T03:03:50.224Z,4.71
2022-09-17T03:04:50.122Z,4.71
2022-09-17T03:05:50.106Z,4.69
2022-09-17T03:06:50.099Z,4.59
2022-09-17T03:07:50.105Z,4.65
2022-09-17T03:08:50.203Z,4.65
2022-09-17T03:09:50.148Z,4.61
2022-09-17T03:10:50.063Z,4.65
2022-09-17T03:11:50.048Z,4.62
2022-09-17T03:12:50.030Z,4.69
2022-09-17T03:13:50.026Z,4.80
2022-09-17T03:14:50.031Z,4.84
2022-09-17T03:15:50.099Z,4.79
2022-09-17T03:16:50.004Z,4.74
2022-09-17T03:17:53.280Z,4.80
2022-09-17T03:18:49.969Z,4.74
2022-09-17T03:19:49.954Z,4.72
2022-09-17T03:20:50.037Z,4.79
2022-09-17T03:21:49.938Z,4.74
2022-09-17T03:22:49.923Z,4.72
2022-09-17T03:23:49.911Z,4.53
2022-09-17T03:24:50.033Z,4.56
2022-09-17T03:25:49.900Z,4.54
2022-09-17T03:26:49.951Z,4.61
2022-09-17T03:27:49.866Z,4.54
2022-09-17T03:28:49.861Z,4.36
2022-09-17T03:29:49.848Z,4.42
2022-09-17T03:30:49.889Z,4.28
2022-09-17T03:31:49.972Z,4.13
2022-09-17T03:32:49.913Z,4.16
2022-09-17T03:33:49.802Z,4.25
2022-09-17T03:34:49.793Z,4.21
2022-09-17T03:35:49.881Z,4.18
2022-09-17T03:36:49.779Z,4.28
2022-09-17T03:37:49.758Z,4.21
2022-09-17T03:38:49.827Z,4.28
2022-09-17T03:39:49.791Z,4.29
2022-09-17T03:40:49.841Z,4.31
2022-09-17T03:41:49.711Z,4.29
2022-09-17T03:42:49.715Z,4.36
2022-09-17T03:43:49.694Z,4.35
2022-09-17T03:44:49.806Z,4.34
2022-09-17T03:45:49.674Z,4.16
2022-09-17T03:46:49.796Z,4.29
2022-09-17T03:47:49.651Z,4.42
2022-09-17T03:48:49.651Z,4.59
2022-09-17T03:49:49.624Z,4.51
2022-09-17T03:50:49.624Z,4.36
2022-09-17T03:51:49.614Z,4.46
2022-09-17T03:52:49.604Z,4.49
2022-09-17T03:53:49.724Z,4.50
2022-09-17T03:54:49.571Z,4.47
2022-09-17T03:55:49.564Z,4.42
2022-09-17T03:56:49.684Z,4.35
2022-09-17T03:57:49.539Z,4.43
2022-09-17T03:58:49.528Z,4.39
2022-09-17T03:59:49.528Z,4.35
2022-09-17T04:00:49.506Z,4.38
2022-09-17T04:01:49.675Z,4.47
2022-09-17T04:02:49.641Z,4.38
2022-09-17T04:03:49.489Z,4.47
2022-09-17T04:04:49.462Z,4.43
2022-09-17T04:05:49.463Z,4.35
2022-09-17T04:06:49.441Z,4.14
2022-09-17T04:07:49.428Z,4.34
2022-09-17T04:08:49.482Z,4.28
2022-09-17T04:09:49.409Z,4.32
2022-09-17T04:10:49.401Z,4.26
2022-09-17T04:11:49.396Z,4.17
2022-09-17T04:12:49.503Z,4.17
2022-09-17T04:13:49.471Z,4.28
2022-09-17T04:14:49.421Z,4.10
2022-09-17T04:15:49.414Z,4.18
2022-09-17T04:16:49.341Z,4.20
2022-09-17T04:17:49.336Z,4.24
2022-09-17T04:18:49.309Z,4.10
2022-09-17T04:19:49.299Z,4.17
2022-09-17T04:20:49.351Z,4.14
2022-09-17T04:21:49.288Z,4.16
2022-09-17T04:22:49.265Z,4.08
2022-09-17T04:23:49.252Z,4.32
2022-09-17T04:24:49.241Z,4.08
2022-09-17T04:25:49.231Z,4.18
2022-09-17T04:26:49.293Z,4.18
2022-09-17T04:27:49.219Z,4.11
2022-09-17T04:28:49.467Z,4.26
2022-09-17T04:29:49.198Z,4.20
2022-09-17T04:30:49.175Z,4.10
2022-09-17T04:31:49.181Z,4.08
2022-09-17T04:32:49.229Z,4.14
2022-09-17T04:33:49.145Z,4.17
2022-09-17T04:34:49.150Z,4.14
2022-09-17T04:35:49.125Z,4.02
2022-09-17T04:36:49.115Z,4.06
2022-09-17T04:37:49.101Z,3.99
2022-09-17T04:38:49.169Z,4.02
2022-09-17T04:39:49.264Z,3.99
2022-09-17T04:40:49.071Z,4.14
2022-09-17T04:41:49.077Z,4.14
2022-09-17T04:42:49.049Z,4.08
2022-09-17T04:43:49.068Z,4.00
2022-09-17T04:44:49.164Z,4.07
2022-09-17T04:45:49.021Z,3.84
2022-09-17T04:46:49.038Z,3.98
2022-09-17T04:47:49.002Z,4.13
2022-09-17T04:48:48.982Z,3.98
2022-09-17T04:49:48.989Z,4.04
2022-09-17T04:50:49.025Z,4.02
2022-09-17T04:51:48.945Z,4.06
2022-09-17T04:52:48.937Z,3.98
2022-09-17T04:53:48.940Z,4.02
2022-09-17T04:54:48.918Z,3.98
2022-09-17T04:55:48.973Z,3.98
2022-09-17T04:56:48.896Z,3.96
2022-09-17T04:57:48.895Z,3.99
2022-09-17T04:58:48.914Z,3.99
2022-09-17T04:59:48.870Z,3.90
2022-09-17T05:00:49.014Z,3.93
2022-09-17T05:01:48.968Z,3.95
2022-09-17T05:02:48.830Z,4.02
2022-09-17T05:03:48.817Z,3.92
2022-09-17T05:04:48.905Z,3.81
2022-09-17T05:05:48.798Z,3.80
2022-09-17T05:06:48.785Z,3.81
2022-09-17T05:07:48.774Z,3.92
2022-09-17T05:08:48.761Z,3.95
2022-09-17T05:09:48.825Z,3.78
2022-09-17T05:10:48.753Z,3.88
2022-09-17T05:11:48.731Z,3.92
2022-09-17T05:12:48.721Z,3.86
2022-09-17T05:13:48.747Z,3.80
2022-09-17T05:14:48.698Z,3.92
2022-09-17T05:15:48.823Z,3.86
2022-09-17T05:16:48.792Z,3.90
2022-09-17T05:17:48.706Z,3.86
2022-09-17T05:18:48.653Z,3.96
2022-09-17T05:19:48.645Z,3.88
2022-09-17T05:20:48.635Z,3.89
2022-09-17T05:21:48.736Z,3.86
2022-09-17T05:22:48.612Z,3.86
2022-09-17T05:23:48.604Z,3.84
2022-09-17T05:24:48.590Z,3.92
2022-09-17T05:25:48.584Z,3.78
2022-09-17T05:26:48.568Z,3.89
2022-09-17T05:27:48.588Z,3.89
2022-09-17T05:28:48.542Z,3.93
2022-09-17T05:29:48.536Z,3.88
2022-09-17T05:30:48.525Z,3.96
2022-09-17T05:31:48.647Z,3.96
2022-09-17T05:32:48.620Z,3.90
2022-09-17T05:33:48.560Z,3.93
2022-09-17T05:34:48.482Z,3.98
2022-09-17T05:35:48.468Z,3.96
2022-09-17T05:36:48.455Z,3.84
2022-09-17T05:37:48.456Z,3.95
2022-09-17T05:38:48.439Z,3.81
2022-09-17T05:39:48.504Z,3.89
2022-09-17T05:40:48.428Z,3.86
2022-09-17T05:41:48.402Z,3.99
2022-09-17T05:42:48.406Z,3.98
2022-09-17T05:43:48.379Z,3.99
2022-09-17T05:44:48.372Z,3.84
2022-09-17T05:45:48.529Z,3.90
2022-09-17T05:46:48.494Z,3.78
2022-09-17T05:47:48.348Z,3.70
2022-09-17T05:48:48.453Z,3.49
2022-09-17T05:49:48.315Z,3.70
2022-09-17T05:50:48.307Z,3.60
2022-09-17T05:51:48.357Z,3.53
2022-09-17T05:52:48.295Z,3.42
2022-09-17T05:53:48.349Z,3.54
2022-09-17T05:54:48.263Z,3.54
2022-09-17T05:55:48.255Z,3.46
2022-09-17T05:56:48.240Z,3.50
2022-09-17T05:57:48.369Z,3.53
2022-09-17T05:58:48.230Z,3.60
2022-09-17T05:59:48.208Z,3.64
2022-09-17T06:00:48.198Z,3.59
2022-09-17T06:01:48.280Z,3.57
2022-09-17T06:02:48.215Z,3.67
2022-09-17T06:03:48.326Z,3.53
2022-09-17T06:04:48.290Z,3.75
2022-09-17T06:05:48.144Z,3.74
2022-09-17T06:06:48.142Z,3.68
2022-09-17T06:07:48.120Z,3.86
2022-09-17T06:08:48.135Z,3.93
2022-09-17T06:09:48.178Z,3.82
2022-09-17T06:10:48.089Z,3.92
2022-09-17T06:11:48.077Z,3.78
2022-09-17T06:12:48.071Z,3.84
2022-09-17T06:13:48.075Z,3.88
2022-09-17T06:14:48.054Z,3.71
2022-09-17T06:15:48.202Z,3.64
2022-09-17T06:16:48.047Z,3.88
2022-09-17T06:17:48.022Z,3.71
2022-09-17T06:18:47.998Z,3.72
2022-09-17T06:19:47.989Z,3.71
2022-09-17T06:20:48.116Z,3.74
2022-09-17T06:21:48.041Z,3.78
2022-09-17T06:22:47.974Z,3.78
2022-09-17T06:23:47.946Z,3.78
2022-09-17T06:24:47.939Z,3.68
2022-09-17T06:25:47.926Z,3.54
2022-09-17T06:26:47.923Z,3.57
2022-09-17T06:27:47.971Z,3.56
2022-09-17T06:28:47.897Z,3.52
2022-09-17T06:29:47.885Z,3.64
2022-09-17T06:30:47.961Z,3.57
2022-09-17T06:31:47.993Z,3.53
2022-09-17T06:32:47.852Z,3.46
2022-09-17T06:33:47.849Z,3.67
2022-09-17T06:34:47.828Z,3.70
2022-09-17T06:35:47.885Z,3.67
2022-09-17T06:36:47.991Z,3.71
2022-09-17T06:37:47.799Z,3.59
2022-09-17T06:38:47.893Z,3.59
2022-09-17T06:39:47.774Z,3.56
2022-09-17T06:40:47.764Z,3.46
2022-09-17T06:41:47.764Z,3.63
2022-09-17T06:42:47.760Z,3.72
2022-09-17T06:43:47.817Z,3.64
2022-09-17T06:44:47.720Z,3.78
2022-09-17T06:45:47.722Z,3.82
2022-09-17T06:46:47.761Z,3.75
2022-09-17T06:47:47.699Z,3.88
2022-09-17T06:48:47.678Z,3.53
2022-09-17T06:49:47.736Z,3.59
2022-09-17T06:50:47.659Z,3.50
2022-09-17T06:51:47.655Z,3.44
2022-09-17T06:52:47.756Z,3.30
2022-09-17T06:53:47.687Z,3.31
2022-09-17T06:54:47.646Z,3.52
2022-09-17T06:55:47.657Z,3.46
2022-09-17T06:56:47.588Z,3.34
2022-09-17T06:57:47.601Z,3.42
2022-09-17T06:58:47.569Z,3.20
2022-09-17T06:59:47.555Z,3.23
2022-09-17T07:00:47.622Z,3.10
2022-09-17T07:01:47.689Z,3.25
2022-09-17T07:02:47.529Z,3.31
2022-09-17T07:03:47.519Z,3.35
2022-09-17T07:04:47.502Z,3.31
2022-09-17T07:05:47.494Z,3.45
2022-09-17T07:06:47.498Z,3.49
2022-09-17T07:07:47.534Z,3.52
2022-09-17T07:08:47.700Z,3.53
2022-09-17T07:09:47.449Z,3.77
2022-09-17T07:10:47.438Z,3.71
2022-09-17T07:11:47.428Z,3.64
2022-09-17T07:12:49.938Z,3.63
2022-09-17T07:13:47.443Z,3.80
2022-09-17T07:14:47.397Z,3.82
2022-09-17T07:15:47.447Z,3.78
2022-09-17T07:16:47.375Z,3.78
2022-09-17T07:17:47.367Z,3.78
2022-09-17T07:18:47.369Z,3.86
2022-09-17T07:19:47.427Z,3.86
2022-09-17T07:20:47.342Z,3.84
2022-09-17T07:21:47.322Z,3.86
2022-09-17T07:22:47.311Z,3.89
2022-09-17T07:23:47.302Z,3.93
2022-09-17T07:24:47.409Z,3.89
2022-09-17T07:25:47.329Z,3.86
2022-09-17T07:26:47.275Z,3.93
2022-09-17T07:27:47.253Z,3.89
2022-09-17T07:28:47.243Z,3.88
2022-09-17T07:29:47.236Z,3.82
2022-09-17T07:30:47.233Z,4.06
2022-09-17T07:31:47.412Z,3.90
2022-09-17T07:32:47.216Z,4.07
2022-09-17T07:33:47.189Z,4.06
2022-09-17T07:34:47.178Z,4.07
2022-09-17T07:35:47.166Z,3.92
2022-09-17T07:36:47.157Z,3.90
2022-09-17T07:37:47.213Z,3.96
2022-09-17T07:38:47.176Z,4.06
2022-09-17T07:39:47.126Z,4.08
2022-09-17T07:40:47.237Z,4.13
2022-09-17T07:41:47.099Z,4.08
2022-09-17T07:42:47.101Z,4.29
2022-09-17T07:43:47.153Z,4.21
2022-09-17T07:44:47.070Z,4.31
2022-09-17T07:45:47.060Z,4.31
2022-09-17T07:46:47.119Z,4.24
2022-09-17T07:47:47.038Z,4.21
2022-09-17T07:48:47.039Z,4.29
2022-09-17T07:49:47.030Z,4.14
2022-09-17T07:50:47.002Z,4.16
2022-09-17T07:51:47.004Z,4.29
2022-09-17T07:52:46.984Z,4.14
2022-09-17T07:53:47.030Z,4.21
2022-09-17T07:54:46.972Z,4.31
2022-09-17T07:55:47.019Z,4.29
2022-09-17T07:56:47.077Z,4.38
2022-09-17T07:57:46.941Z,4.35
2022-09-17T07:58:46.925Z,4.35
2022-09-17T07:59:46.912Z,4.44
2022-09-17T08:00:46.963Z,4.64
2022-09-17T08:01:47.025Z,4.57
2022-09-17T08:02:47.011Z,4.53
2022-09-17T08:03:46.866Z,4.62
2022-09-17T08:04:46.872Z,4.39
2022-09-17T08:05:46.846Z,4.47
2022-09-17T08:06:46.895Z,4.50
2022-09-17T08:07:46.822Z,4.38
2022-09-17T08:08:46.968Z,4.21
2022-09-17T08:09:46.796Z,4.44
2022-09-17T08:10:46.801Z,4.24
2022-09-17T08:12:02.132Z,4.42
2022-09-17T08:12:47.888Z,4.43
2022-09-17T08:13:46.856Z,4.42
2022-09-17T08:14:46.746Z,4.46
2022-09-17T08:15:46.760Z,4.34
2022-09-17T08:16:46.733Z,4.46
2022-09-17T08:17:46.713Z,4.44
2022-09-17T08:18:46.699Z,4.56
2022-09-17T08:19:46.741Z,4.61
2022-09-17T08:20:46.685Z,4.46
2022-09-17T08:21:46.668Z,4.51
2022-09-17T08:22:49.979Z,4.39
2022-09-17T08:23:46.648Z,4.47
2022-09-17T08:24:46.649Z,4.36
2022-09-17T08:25:46.795Z,4.39
2022-09-17T08:26:46.615Z,4.21
2022-09-17T08:27:46.620Z,4.26
2022-09-17T08:28:46.712Z,4.35
2022-09-17T08:29:46.585Z,4.54
2022-09-17T08:30:46.574Z,4.64
2022-09-17T08:31:46.740Z,4.54
2022-09-17T08:32:46.550Z,4.71
2022-09-17T08:33:46.540Z,4.65
2022-09-17T08:34:46.534Z,4.77
2022-09-17T08:35:46.516Z,4.90
2022-09-17T08:36:46.505Z,4.94
2022-09-17T08:37:46.757Z,4.93
2022-09-17T08:38:46.590Z,4.88
2022-09-17T08:39:46.473Z,4.87
2022-09-17T08:40:46.465Z,4.91
2022-09-17T08:41:46.451Z,4.83
2022-09-17T08:42:46.439Z,4.64
2022-09-17T08:43:46.440Z,4.69
2022-09-17T08:44:46.551Z,4.72
2022-09-17T08:45:46.525Z,4.79
2022-09-17T08:46:46.661Z,4.75
2022-09-17T08:47:46.385Z,4.77
2022-09-17T08:48:46.378Z,4.72
2022-09-17T08:49:46.363Z,4.91
2022-09-17T08:50:46.452Z,4.97
2022-09-17T08:51:46.674Z,4.94
2022-09-17T08:52:46.337Z,5.01
2022-09-17T08:53:46.384Z,4.94
2022-09-17T08:54:46.310Z,4.88
2022-09-17T08:55:46.312Z,4.87
2022-09-17T08:56:46.291Z,5.01
2022-09-17T08:57:46.386Z,5.12
2022-09-17T08:58:46.265Z,5.17
2022-09-17T08:59:46.295Z,5.14
2022-09-17T09:00:46.377Z,5.08
2022-09-17T09:01:46.422Z,5.12
2022-09-17T09:02:46.297Z,5.22
2022-09-17T09:03:46.247Z,5.27
2022-09-17T09:04:46.249Z,5.32
2022-09-17T09:05:46.228Z,5.33
2022-09-17T09:06:46.186Z,5.40
2022-09-17T09:07:46.173Z,5.44
2022-09-17T09:08:46.178Z,5.42
2022-09-17T09:09:46.151Z,5.51
2022-09-17T09:10:46.221Z,5.51
2022-09-17T09:11:46.128Z,5.69
2022-09-17T09:12:46.113Z,5.67
2022-09-17T09:13:46.102Z,5.87
2022-09-17T09:14:46.104Z,5.81
2022-09-17T09:15:46.147Z,5.81
2022-09-17T09:16:46.222Z,5.78
2022-09-17T09:17:46.063Z,5.70
2022-09-17T09:18:46.053Z,5.69
2022-09-17T09:19:46.188Z,5.74
2022-09-17T09:20:46.027Z,5.85
2022-09-17T09:21:46.039Z,5.90
2022-09-17T09:22:46.115Z,6.02
2022-09-17T09:23:46.043Z,5.99
2022-09-17T09:24:45.992Z,6.03
2022-09-17T09:25:45.973Z,5.85
2022-09-17T09:26:45.978Z,5.96
2022-09-17T09:27:45.948Z,6.36
2022-09-17T09:28:46.927Z,6.20
2022-09-17T09:29:45.946Z,6.13
2022-09-17T09:30:45.932Z,6.21
2022-09-17T09:31:45.977Z,6.10
2022-09-17T09:32:46.023Z,6.06
2022-09-17T09:33:48.043Z,6.03
2022-09-17T09:34:45.881Z,5.93
2022-09-17T09:35:45.940Z,5.93
2022-09-17T09:36:45.867Z,5.83
2022-09-17T09:37:45.896Z,5.74
2022-09-17T09:38:45.879Z,5.67
2022-09-17T09:39:46.313Z,5.40
2022-09-17T09:40:45.823Z,5.37
2022-09-17T09:41:45.799Z,5.30
2022-09-17T09:42:45.848Z,5.30
2022-09-17T09:44:03.330Z,5.15
2022-09-17T09:44:46.837Z,5.11
2022-09-17T09:45:45.756Z,5.19
2022-09-17T09:46:45.816Z,5.12
2022-09-17T09:47:45.975Z,4.99
2022-09-17T09:48:45.843Z,4.96
2022-09-17T09:49:45.720Z,5.02
2022-09-17T09:51:05.086Z,4.99
2022-09-17T09:51:46.688Z,4.88
2022-09-17T09:52:45.690Z,4.80
2022-09-17T09:53:45.679Z,4.75
2022-09-17T09:54:45.651Z,4.77
2022-09-17T09:55:45.644Z,4.71
2022-09-17T09:56:45.911Z,4.77
2022-09-17T09:57:45.625Z,4.83
2022-09-17T09:58:45.622Z,4.72
2022-09-17T09:59:45.679Z,4.83
2022-09-17T10:00:45.588Z,4.90
2022-09-17T10:01:45.722Z,4.74
2022-09-17T10:02:45.758Z,4.68
2022-09-17T10:03:45.622Z,4.68
2022-09-17T10:04:48.278Z,4.56
2022-09-17T10:05:45.537Z,4.31
2022-09-17T10:06:45.529Z,4.20
2022-09-17T10:07:45.531Z,4.20
2022-09-17T10:08:45.507Z,4.13
2022-09-17T10:09:45.588Z,4.10
2022-09-17T10:10:45.481Z,4.17
2022-09-17T10:11:45.470Z,4.26
2022-09-17T10:12:45.462Z,4.11
2022-09-17T10:13:45.459Z,4.13
2022-09-17T10:14:45.441Z,4.20
2022-09-17T10:15:45.516Z,4.26
2022-09-17T10:16:45.416Z,4.34
2022-09-17T10:17:45.407Z,4.56
2022-09-17T10:18:45.403Z,4.67
2022-09-17T10:19:45.378Z,4.64
2022-09-17T10:20:45.495Z,4.71
2022-09-17T10:21:45.483Z,4.64
2022-09-17T10:22:45.356Z,4.77
2022-09-17T10:23:45.341Z,4.79
2022-09-17T10:24:45.338Z,4.84
2022-09-17T10:25:45.325Z,4.94
2022-09-17T10:26:45.304Z,4.96
2022-09-17T10:27:45.390Z,5.17
2022-09-17T10:28:45.497Z,5.48
2022-09-17T10:29:45.277Z,5.48
2022-09-17T10:30:45.289Z,5.32
2022-09-17T10:31:45.646Z,5.42
2022-09-17T10:32:45.241Z,5.51
2022-09-17T10:33:45.234Z,5.48
2022-09-17T10:34:45.230Z,5.59
2022-09-17T10:35:45.209Z,5.59
2022-09-17T10:36:45.318Z,5.42
2022-09-17T10:37:45.194Z,5.49
2022-09-17T10:38:45.235Z,5.67
2022-09-17T10:39:45.266Z,5.85
2022-09-17T10:40:45.156Z,5.73
2022-09-17T10:41:45.221Z,5.38
2022-09-17T10:42:45.137Z,5.23
2022-09-17T10:43:45.133Z,5.42
2022-09-17T10:44:45.113Z,5.51
2022-09-17T10:45:45.118Z,5.59
2022-09-17T10:46:45.157Z,5.66
2022-09-17T10:47:45.082Z,5.74
2022-09-17T10:48:45.071Z,5.83
2022-09-17T10:49:45.054Z,5.80
2022-09-17T10:50:45.048Z,5.80
2022-09-17T10:51:45.139Z,5.99
2022-09-17T10:52:45.153Z,6.10
2022-09-17T10:53:45.016Z,6.05
2022-09-17T10:54:45.004Z,6.11
2022-09-17T10:55:44.992Z,6.10
2022-09-17T10:56:44.981Z,6.20
2022-09-17T10:57:44.978Z,6.17
2022-09-17T10:58:45.016Z,6.24
2022-09-17T10:59:44.952Z,6.65
2022-09-17T11:00:44.933Z,6.93
2022-09-17T11:01:45.018Z,7.11
2022-09-17T11:02:44.988Z,7.16
2022-09-17T11:03:44.921Z,7.15
2022-09-17T11:04:44.908Z,6.97
2022-09-17T11:05:44.883Z,6.83
2022-09-17T11:06:44.873Z,6.73
2022-09-17T11:07:44.868Z,6.61
2022-09-17T11:08:44.978Z,6.35
2022-09-17T11:09:44.835Z,6.20
2022-09-17T11:10:44.893Z,6.11
2022-09-17T11:11:44.829Z,6.05
2022-09-17T11:12:44.802Z,6.19
2022-09-17T11:13:44.880Z,6.30
2022-09-17T11:14:44.784Z,6.24
2022-09-17T11:15:46.154Z,6.28
2022-09-17T11:16:44.806Z,6.24
2022-09-17T11:17:44.763Z,6.16
2022-09-17T11:18:44.734Z,6.01
2022-09-17T11:19:44.817Z,5.80
2022-09-17T11:20:44.715Z,5.65
2022-09-17T11:21:44.705Z,5.69
2022-09-17T11:22:44.764Z,5.69
2022-09-17T11:23:44.690Z,5.81
2022-09-17T11:24:44.809Z,5.96
2022-09-17T11:25:44.666Z,6.02
2022-09-17T11:26:44.651Z,6.02
2022-09-17T11:27:44.676Z,6.01
2022-09-17T11:28:44.639Z,6.20
2022-09-17T11:29:44.611Z,6.61
2022-09-17T11:30:44.609Z,6.71
2022-09-17T11:31:44.653Z,6.65
2022-09-17T11:32:44.585Z,6.50
2022-09-17T11:33:44.586Z,6.35
2022-09-17T11:34:44.572Z,6.35
2022-09-17T11:35:44.551Z,6.33
2022-09-17T11:36:44.881Z,6.33
2022-09-17T11:37:44.529Z,6.28
2022-09-17T11:38:44.575Z,6.33
2022-09-17T11:39:44.510Z,6.19
2022-09-17T11:40:44.625Z,6.43
2022-09-17T11:41:44.491Z,6.35
2022-09-17T11:42:44.475Z,6.21
2022-09-17T11:43:44.461Z,5.99
2022-09-17T11:44:44.450Z,6.28
2022-09-17T11:45:44.439Z,6.50
2022-09-17T11:46:44.532Z,6.32
2022-09-17T11:47:44.419Z,6.43
2022-09-17T11:48:44.405Z,6.40
2022-09-17T11:49:44.397Z,6.33
2022-09-17T11:50:44.422Z,6.25
2022-09-17T11:51:44.389Z,6.16
2022-09-17T11:52:44.426Z,6.24
2022-09-17T11:53:44.352Z,6.24
2022-09-17T11:54:44.350Z,6.25
2022-09-17T11:55:44.330Z,6.03
2022-09-17T11:56:44.451Z,6.08
2022-09-17T11:57:44.313Z,6.05
2022-09-17T11:58:44.328Z,6.20
2022-09-17T11:59:44.289Z,6.32
2022-09-17T12:00:44.275Z,6.27
2022-09-17T12:01:44.380Z,6.45
2022-09-17T12:02:44.333Z,6.40
2022-09-17T12:03:44.252Z,6.35
2022-09-17T12:04:44.308Z,6.36
2022-09-17T12:05:44.222Z,6.40
2022-09-17T12:06:44.222Z,6.53
2022-09-17T12:07:44.222Z,6.13
2022-09-17T12:08:44.194Z,5.95
2022-09-17T12:09:44.193Z,5.95
2022-09-17T12:10:44.229Z,5.83
2022-09-17T12:11:44.181Z,5.77
2022-09-17T12:12:50.061Z,5.93
2022-09-17T12:13:45.151Z,5.81
2022-09-17T12:14:44.122Z,5.83
2022-09-17T12:15:44.163Z,5.67
2022-09-17T12:16:44.211Z,5.69
2022-09-17T12:17:44.091Z,5.87
2022-09-17T12:18:44.091Z,5.96
2022-09-17T12:19:44.072Z,5.95
2022-09-17T12:20:44.057Z,6.14
2022-09-17T12:21:44.047Z,6.17
2022-09-17T12:22:44.089Z,6.08
2022-09-17T12:23:44.041Z,6.17
2022-09-17T12:24:44.013Z,6.14
2022-09-17T12:25:44.032Z,6.13
2022-09-17T12:26:43.992Z,6.27
2022-09-17T12:27:44.202Z,6.53
2022-09-17T12:28:44.088Z,6.53
2022-09-17T12:29:43.959Z,6.35
2022-09-17T12:30:43.951Z,6.39
2022-09-17T12:31:43.989Z,6.40
2022-09-17T12:32:43.928Z,6.28
2022-09-17T12:33:44.025Z,6.25
2022-09-17T12:34:43.990Z,6.43
2022-09-17T12:36:03.464Z,6.39
2022-09-17T12:36:44.880Z,6.38
2022-09-17T12:37:43.967Z,6.48
2022-09-17T12:38:43.864Z,6.46
2022-09-17T12:39:43.992Z,6.53
2022-09-17T12:40:43.959Z,6.48
2022-09-17T12:41:43.827Z,6.55
2022-09-17T12:42:43.824Z,6.39
2022-09-17T12:43:43.804Z,6.43
2022-09-17T12:44:43.912Z,6.28
2022-09-17T12:45:47.395Z,6.32
2022-09-17T12:46:44.880Z,6.61
2022-09-17T12:47:43.977Z,6.82
2022-09-17T12:48:43.751Z,6.82
2022-09-17T12:49:43.741Z,7.08
2022-09-17T12:50:43.735Z,7.23
2022-09-17T12:51:43.731Z,7.16
2022-09-17T12:52:43.808Z,7.29
2022-09-17T12:53:43.710Z,7.18
2022-09-17T12:54:45.424Z,6.82
2022-09-17T12:55:43.672Z,7.15
2022-09-17T12:56:43.663Z,7.16
2022-09-17T12:57:43.753Z,7.05
2022-09-17T12:58:43.666Z,6.91
2022-09-17T12:59:43.633Z,6.94
2022-09-17T13:00:43.808Z,6.86
2022-09-17T13:01:43.631Z,6.94
2022-09-17T13:02:43.600Z,6.90
2022-09-17T13:03:43.594Z,6.82
2022-09-17T13:05:00.385Z,6.78
2022-09-17T13:05:44.562Z,6.75
2022-09-17T13:06:43.555Z,6.57
2022-09-17T13:07:43.549Z,6.50
2022-09-17T13:08:43.544Z,6.27
2022-09-17T13:09:43.522Z,6.43
2022-09-17T13:10:43.575Z,6.38
2022-09-17T13:11:43.498Z,6.53
2022-09-17T13:12:43.488Z,6.54
2022-09-17T13:13:43.491Z,6.72
2022-09-17T13:14:43.463Z,6.63
2022-09-17T13:15:43.506Z,6.58
2022-09-17T13:16:43.639Z,6.69
2022-09-17T13:17:43.502Z,6.73
2022-09-17T13:18:59.307Z,6.57